Time;durP1;ratioP1;P1;durP2;ratioP2;P2;SDS_P1;SDS_P2;PMS_P1;PMS_P2;Temp;Humidity;BMP_temperature;BMP_pressure;BME280_temperature;BME280_humidity;BME280_pressure;Samples;Min_cycle;Max_cycle;Signal;HPM_P1;HPM_P2
2023/01/28 00:02:51;;;;;;;13.37;10.47;;;4.80;42.60;;;;;;10299126;28;20323;-69
2023/01/28 00:07:54;;;;;;;12.90;10.53;;;4.80;42.60;;;;;;10295777;28;20240;-70
2023/01/28 00:12:57;;;;;;;12.07;9.57;;;4.80;42.60;;;;;;10299990;28;20238;-70
2023/01/28 00:18:02;;;;;;;11.10;9.37;;;4.80;42.60;;;;;;10299279;28;20239;-70
2023/01/28 00:23:06;;;;;;;12.30;9.70;;;4.70;42.50;;;;;;10306856;28;20223;-72
2023/01/28 00:28:09;;;;;;;12.17;9.73;;;4.80;42.60;;;;;;10299771;28;20234;-70
2023/01/28 00:33:16;;;;;;;11.67;9.40;;;4.70;42.50;;;;;;10302061;28;20236;-70
2023/01/28 00:38:20;;;;;;;13.10;9.97;;;4.80;42.60;;;;;;10300098;28;20717;-70
2023/01/28 00:43:23;;;;;;;12.60;9.70;;;4.80;42.60;;;;;;10302446;28;20684;-70
2023/01/28 00:48:27;;;;;;;9.87;8.23;;;4.80;42.60;;;;;;10297832;28;20235;-73
2023/01/28 00:53:31;;;;;;;9.63;8.23;;;4.80;42.60;;;;;;10302287;28;20235;-73
2023/01/28 00:58:34;;;;;;;10.97;8.97;;;4.80;42.60;;;;;;10299208;28;20710;-73
2023/01/28 01:03:39;;;;;;;10.50;8.13;;;4.80;42.60;;;;;;10298636;28;20234;-73
2023/01/28 01:08:49;;;;;;;9.10;7.50;;;4.80;42.60;;;;;;10301801;28;20226;-73
2023/01/28 01:13:55;;;;;;;9.33;8.33;;;4.80;42.60;;;;;;10301351;28;20258;-72
2023/01/28 01:19:00;;;;;;;9.83;8.03;;;4.80;42.60;;;;;;10296598;28;20239;-73
2023/01/28 01:24:03;;;;;;;10.43;8.87;;;4.80;42.60;;;;;;10296488;28;20227;-72
2023/01/28 01:29:08;;;;;;;9.73;8.47;;;4.80;42.60;;;;;;10298877;28;20230;-73
2023/01/28 01:34:13;;;;;;;9.73;8.67;;;4.80;42.60;;;;;;10298340;28;20231;-73
2023/01/28 01:39:16;;;;;;;9.57;8.57;;;4.70;42.50;;;;;;10299135;28;20707;-73
2023/01/28 01:44:57;;;;;;;8.97;8.07;;;4.70;42.50;;;;;;10301402;28;20751;-73
2023/01/28 01:50:07;;;;;;;9.80;8.10;;;4.70;42.50;;;;;;10294962;28;20219;-73
2023/01/28 01:55:16;;;;;;;9.13;8.10;;;4.70;42.50;;;;;;10296516;28;20222;-73
2023/01/28 02:00:20;;;;;;;8.80;7.90;;;4.70;42.50;;;;;;10298123;28;20254;-73
2023/01/28 02:05:24;;;;;;;9.17;8.10;;;4.70;42.50;;;;;;10295590;28;20716;-73
2023/01/28 02:10:28;;;;;;;8.23;7.43;;;4.60;42.40;;;;;;10295514;28;20320;-73
2023/01/28 02:15:31;;;;;;;8.27;7.17;;;4.60;42.40;;;;;;10298756;28;20238;-73
2023/01/28 02:20:51;;;;;;;9.43;8.27;;;4.60;42.40;;;;;;10300766;28;20218;-72
2023/01/28 02:26:33;;;;;;;9.10;7.50;;;4.60;42.40;;;;;;10299355;28;20962;-74
2023/01/28 02:31:44;;;;;;;8.00;7.17;;;4.60;42.40;;;;;;10274307;28;20229;-74
2023/01/28 02:36:52;;;;;;;9.10;7.70;;;4.60;42.40;;;;;;10295038;28;20241;-73
2023/01/28 02:42:02;;;;;;;9.00;8.10;;;4.70;42.50;;;;;;10299973;28;20250;-73
2023/01/28 02:58:10;;;;;;;9.07;8.13;;;4.70;42.50;;;;;;10304598;28;20245;-73
2023/01/28 03:03:18;;;;;;;8.27;7.47;;;4.60;42.40;;;;;;10306397;28;20235;-73
2023/01/28 03:40:50;;;;;;;7.40;6.70;;;4.70;42.60;;;;;;10307675;28;20235;-70
2023/01/28 03:45:54;;;;;;;7.63;6.70;;;4.60;42.50;;;;;;10301364;28;20271;-70
2023/01/28 03:50:59;;;;;;;9.23;7.43;;;4.70;42.60;;;;;;10305756;28;20227;-70
2023/01/28 03:56:02;;;;;;;8.90;7.67;;;4.70;42.60;;;;;;10302239;28;20230;-71
2023/01/28 04:01:05;;;;;;;8.63;7.47;;;4.70;42.60;;;;;;10304450;28;20290;-70
2023/01/28 04:06:10;;;;;;;8.33;7.43;;;4.70;42.60;;;;;;10300942;28;20262;-73
2023/01/28 04:11:18;;;;;;;9.37;7.77;;;4.70;42.50;;;;;;10304878;28;20238;-72
2023/01/28 04:16:21;;;;;;;7.67;6.87;;;4.70;42.50;;;;;;10305054;28;20227;-72
2023/01/28 04:21:25;;;;;;;7.93;6.93;;;4.70;42.50;;;;;;10303598;28;20305;-73
2023/01/28 04:26:29;;;;;;;8.57;7.73;;;4.70;42.60;;;;;;10305371;28;20232;-70
2023/01/28 04:31:32;;;;;;;8.03;7.23;;;4.70;42.50;;;;;;10311687;28;20235;-70
2023/01/28 04:36:37;;;;;;;7.37;6.60;;;4.70;42.60;;;;;;10304900;28;20305;-69
2023/01/28 04:41:40;;;;;;;8.20;7.40;;;4.70;43.50;;;;;;10300442;28;20246;-70
2023/01/28 04:46:43;;;;;;;8.73;7.60;;;4.70;42.70;;;;;;10302321;28;20712;-73
2023/01/28 04:51:48;;;;;;;7.63;6.83;;;4.70;42.60;;;;;;10297935;28;20242;-70
2023/01/28 04:56:51;;;;;;;8.27;7.47;;;4.70;42.50;;;;;;10297498;28;20742;-70
2023/01/28 05:01:54;;;;;;;7.83;7.00;;;4.60;42.50;;;;;;10307518;28;20278;-70
2023/01/28 05:06:58;;;;;;;8.40;7.50;;;4.60;42.60;;;;;;10298445;28;20704;-72
2023/01/28 05:12:01;;;;;;;8.33;7.40;;;4.60;42.60;;;;;;10303232;28;20234;-72
2023/01/28 05:17:05;;;;;;;7.93;7.13;;;4.60;42.60;;;;;;10302024;28;20223;-73
2023/01/28 05:22:09;;;;;;;7.73;6.67;;;4.60;42.80;;;;;;10303236;28;20318;-73
2023/01/28 05:27:12;;;;;;;8.20;7.40;;;4.60;42.90;;;;;;10295047;28;20239;-73
2023/01/28 05:32:16;;;;;;;7.93;7.13;;;4.60;42.90;;;;;;10301296;28;20227;-69
2023/01/28 05:37:20;;;;;;;8.03;7.27;;;4.60;42.80;;;;;;10298298;28;20235;-70
2023/01/28 05:42:23;;;;;;;8.17;7.33;;;4.60;42.70;;;;;;10298857;28;20231;-69
2023/01/28 05:47:26;;;;;;;6.97;6.30;;;4.60;42.80;;;;;;10297228;28;20247;-70
2023/01/28 05:52:31;;;;;;;8.10;7.30;;;4.60;42.90;;;;;;10296411;28;20235;-70
2023/01/28 05:57:34;;;;;;;8.17;7.10;;;4.60;42.90;;;;;;10301860;28;20234;-71
2023/01/28 06:02:37;;;;;;;8.13;7.17;;;4.70;43.10;;;;;;10299941;28;20595;-70
2023/01/28 06:07:44;;;;;;;10.10;7.90;;;4.70;43.00;;;;;;10307344;28;20601;-70
2023/01/28 06:12:48;;;;;;;8.17;7.30;;;4.70;43.10;;;;;;10303116;28;20691;-69
2023/01/28 06:17:51;;;;;;;8.10;7.30;;;4.70;43.00;;;;;;10298852;28;20263;-69
2023/01/28 06:22:55;;;;;;;8.53;7.70;;;4.70;42.90;;;;;;10303154;28;20230;-70
2023/01/28 06:27:59;;;;;;;8.43;7.23;;;4.80;42.90;;;;;;10297863;28;20744;-69
2023/01/28 06:33:02;;;;;;;7.80;7.07;;;4.80;42.90;;;;;;10298205;28;20234;-69
2023/01/28 06:38:07;;;;;;;7.80;7.00;;;4.70;42.80;;;;;;10296595;28;21174;-72
2023/01/28 06:43:10;;;;;;;8.03;7.23;;;4.80;42.90;;;;;;10299006;28;20227;-73
2023/01/28 06:48:13;;;;;;;8.80;7.77;;;4.80;42.90;;;;;;10299096;28;20230;-73
2023/01/28 06:53:18;;;;;;;9.10;7.73;;;4.80;42.80;;;;;;10298807;28;20912;-73
2023/01/28 06:58:23;;;;;;;8.50;7.63;;;4.70;42.60;;;;;;10302589;28;20235;-74
2023/01/28 07:03:26;;;;;;;8.73;7.50;;;4.70;42.50;;;;;;10296603;28;20250;-71
2023/01/28 07:08:31;;;;;;;9.37;7.93;;;4.70;42.70;;;;;;10296460;28;20234;-69
2023/01/28 07:13:35;;;;;;;7.23;6.53;;;4.70;42.70;;;;;;10297708;28;20637;-71
2023/01/28 07:18:38;;;;;;;7.90;7.10;;;4.70;42.70;;;;;;10293450;28;20257;-71
2023/01/28 07:23:43;;;;;;;7.80;7.03;;;4.70;43.10;;;;;;10295070;28;20779;-71
2023/01/28 07:28:46;;;;;;;8.17;7.37;;;4.70;42.90;;;;;;10298418;28;20250;-69
2023/01/28 07:33:49;;;;;;;8.47;7.60;;;4.80;43.00;;;;;;10302303;28;20231;-71
2023/01/28 07:38:55;;;;;;;9.33;7.87;;;4.70;43.00;;;;;;10304719;28;20226;-69
2023/01/28 07:43:58;;;;;;;8.70;7.50;;;4.80;43.10;;;;;;10303190;28;20227;-69
2023/01/28 07:49:01;;;;;;;9.07;7.83;;;4.80;43.00;;;;;;10303295;28;20631;-69
2023/01/28 07:54:06;;;;;;;8.53;7.63;;;4.80;43.00;;;;;;10301134;28;20227;-69
2023/01/28 07:59:09;;;;;;;8.67;7.77;;;4.80;42.90;;;;;;10301762;28;20231;-72
2023/01/28 08:04:12;;;;;;;9.23;7.63;;;4.80;43.00;;;;;;10300444;28;20234;-71
2023/01/28 08:09:17;;;;;;;8.87;7.97;;;4.80;42.70;;;;;;10304991;28;20245;-71
2023/01/28 08:14:20;;;;;;;8.70;7.80;;;4.80;42.70;;;;;;10299717;28;20235;-70
2023/01/28 08:19:23;;;;;;;8.53;7.63;;;4.80;42.70;;;;;;10305437;28;21015;-69
2023/01/28 08:24:30;;;;;;;10.03;8.17;;;4.80;42.70;;;;;;10303014;28;20223;-71
2023/01/28 08:29:33;;;;;;;9.30;7.60;;;4.80;42.70;;;;;;10284951;28;20231;-70
2023/01/28 08:34:37;;;;;;;9.27;8.33;;;4.80;42.90;;;;;;10288134;28;20719;-70
2023/01/28 08:39:41;;;;;;;9.20;8.30;;;4.80;42.90;;;;;;10285513;28;20243;-74
2023/01/28 08:44:47;;;;;;;9.40;8.43;;;4.80;42.90;;;;;;10281551;28;20251;-74
2023/01/28 08:49:51;;;;;;;9.80;8.77;;;4.80;42.90;;;;;;10285851;28;20227;-73
2023/01/28 08:54:55;;;;;;;8.93;7.93;;;4.80;42.90;;;;;;10283869;28;20728;-73
2023/01/28 08:59:58;;;;;;;10.43;8.93;;;4.80;42.90;;;;;;10284217;28;20901;-73
2023/01/28 09:05:02;;;;;;;11.67;10.43;;;4.80;42.90;;;;;;10285124;28;20231;-71
2023/01/28 09:10:07;;;;;;;9.73;8.37;;;4.80;42.90;;;;;;10289134;28;20231;-71
2023/01/28 09:15:11;;;;;;;9.17;8.27;;;4.80;42.90;;;;;;10279733;28;20246;-71
2023/01/28 09:20:14;;;;;;;8.23;7.40;;;4.90;42.80;;;;;;10283104;28;20223;-70
2023/01/28 09:25:19;;;;;;;8.53;7.63;;;4.90;42.80;;;;;;10278520;28;20321;-69
2023/01/28 09:30:23;;;;;;;12.93;10.80;;;4.90;42.90;;;;;;10279045;28;20233;-70
2023/01/28 09:35:26;;;;;;;9.90;8.90;;;4.90;43.00;;;;;;10282108;28;20238;-69
2023/01/28 09:40:35;;;;;;;8.90;8.00;;;4.90;43.10;;;;;;10279768;28;20223;-69
2023/01/28 09:45:42;;;;;;;9.17;8.30;;;5.00;43.10;;;;;;10286201;28;21241;-74
2023/01/28 09:50:48;;;;;;;9.43;8.30;;;5.00;43.70;;;;;;10281159;28;20516;-74
2023/01/28 09:55:56;;;;;;;10.30;9.23;;;5.10;43.40;;;;;;10281321;28;20231;-74
2023/01/28 10:01:05;;;;;;;10.00;9.00;;;5.00;42.90;;;;;;10286363;28;20222;-74
2023/01/28 10:06:26;;;;;;;10.43;8.87;;;5.10;42.80;;;;;;10288130;28;20232;-73
2023/01/28 10:11:45;;;;;;;9.63;8.63;;;5.10;42.90;;;;;;10276749;28;20231;-73
2023/01/28 10:16:52;;;;;;;9.73;8.80;;;5.10;42.80;;;;;;10283555;28;20238;-74
2023/01/28 10:21:59;;;;;;;9.90;8.40;;;5.20;42.90;;;;;;10281334;28;20257;-74
2023/01/28 10:27:12;;;;;;;9.97;8.97;;;5.20;42.90;;;;;;10274044;28;20235;-73
2023/01/28 10:32:22;;;;;;;9.27;8.27;;;5.20;42.90;;;;;;10277599;28;20234;-73
2023/01/28 10:37:26;;;;;;;11.07;9.27;;;5.30;43.00;;;;;;10284596;28;20270;-73
2023/01/28 10:42:33;;;;;;;9.57;8.20;;;5.30;43.00;;;;;;10282073;28;20729;-71
2023/01/28 10:47:43;;;;;;;10.67;8.87;;;5.30;43.00;;;;;;10272823;28;20230;-71
2023/01/28 10:52:54;;;;;;;9.20;8.27;;;5.30;43.00;;;;;;10282623;28;20239;-71
2023/01/28 10:58:00;;;;;;;12.13;10.80;;;5.30;43.00;;;;;;10275956;28;20231;-71
2023/01/28 11:03:03;;;;;;;10.33;9.27;;;5.30;43.00;;;;;;10278441;28;20868;-71
2023/01/28 11:08:14;;;;;;;9.47;8.37;;;5.30;43.00;;;;;;10277515;28;20900;-71
2023/01/28 11:13:21;;;;;;;11.23;9.13;;;5.30;42.80;;;;;;10280655;28;20215;-71
2023/01/28 11:18:27;;;;;;;9.30;8.40;;;5.30;42.60;;;;;;10284833;28;20242;-69
2023/01/28 11:23:33;;;;;;;9.70;8.70;;;5.30;42.60;;;;;;10287003;28;20238;-71
2023/01/28 11:28:41;;;;;;;10.10;9.03;;;5.30;42.60;;;;;;10286055;28;20242;-69
2023/01/28 11:33:49;;;;;;;10.27;9.17;;;5.30;42.60;;;;;;10284933;28;20223;-71
2023/01/28 11:38:54;;;;;;;12.80;10.13;;;5.30;42.80;;;;;;10282832;28;20235;-69
2023/01/28 11:44:02;;;;;;;10.90;9.80;;;5.30;43.00;;;;;;10284535;28;20250;-69
2023/01/28 11:49:14;;;;;;;10.10;9.10;;;5.30;43.00;;;;;;10282627;28;20229;-73
2023/01/28 11:54:32;;;;;;;11.20;9.43;;;5.30;43.00;;;;;;10291467;28;20237;-74
2023/01/28 11:59:53;;;;;;;11.00;9.90;;;5.30;43.10;;;;;;10291105;28;20231;-74
2023/01/28 12:05:11;;;;;;;11.40;10.03;;;5.30;44.00;;;;;;10286062;28;20696;-74
2023/01/28 12:10:23;;;;;;;12.77;11.00;;;5.30;43.30;;;;;;10284903;28;20602;-74
2023/01/28 12:16:04;;;;;;;11.27;10.07;;;5.30;43.20;;;;;;10284224;28;20253;-69
2023/01/28 12:21:16;;;;;;;12.73;10.90;;;5.30;43.50;;;;;;10282962;28;20248;-69
2023/01/28 12:26:26;;;;;;;13.20;11.43;;;5.30;43.30;;;;;;10288740;28;20943;-69
2023/01/28 12:31:57;;;;;;;11.43;10.23;;;5.30;43.40;;;;;;10287951;28;21009;-72
2023/01/28 12:37:07;;;;;;;12.63;11.20;;;5.40;43.50;;;;;;10291572;28;20294;-71
2023/01/28 12:42:18;;;;;;;11.63;9.97;;;5.40;43.80;;;;;;10278670;28;20224;-70
2023/01/28 12:47:28;;;;;;;12.93;10.83;;;5.40;43.70;;;;;;10283221;28;20227;-70
2023/01/28 12:52:38;;;;;;;12.37;10.50;;;5.40;43.50;;;;;;10286103;28;20318;-70
2023/01/28 12:57:43;;;;;;;11.57;10.37;;;5.50;43.40;;;;;;10277661;28;20589;-70
2023/01/28 13:02:55;;;;;;;12.90;11.20;;;5.50;43.40;;;;;;10285436;28;20247;-68
2023/01/28 13:08:03;;;;;;;11.83;10.63;;;5.60;43.50;;;;;;10285670;28;20223;-74
2023/01/28 13:13:07;;;;;;;10.90;9.73;;;5.60;43.30;;;;;;10285644;28;20235;-69
2023/01/28 13:18:32;;;;;;;11.97;10.00;;;5.70;43.30;;;;;;10281230;28;20238;-69
2023/01/28 13:23:40;;;;;;;11.27;9.57;;;5.70;43.30;;;;;;10284872;28;20226;-69
2023/01/28 13:28:43;;;;;;;11.10;9.90;;;5.80;43.40;;;;;;10281912;28;20250;-70
2023/01/28 13:34:00;;;;;;;10.67;9.57;;;5.80;43.40;;;;;;10283374;28;20758;-70
2023/01/28 13:39:07;;;;;;;12.00;9.23;;;5.80;43.40;;;;;;10287592;28;20751;-70
2023/01/28 13:44:26;;;;;;;12.80;10.67;;;5.90;43.50;;;;;;10281219;28;20227;-70
2023/01/28 13:49:37;;;;;;;10.07;9.07;;;5.90;43.50;;;;;;10280584;28;20235;-70
2023/01/28 13:54:44;;;;;;;10.90;9.60;;;5.90;43.50;;;;;;10279696;28;20231;-70
2023/01/28 14:00:01;;;;;;;11.97;10.23;;;6.00;43.50;;;;;;10277085;28;20624;-70
2023/01/28 14:05:39;;;;;;;12.40;9.67;;;6.00;43.40;;;;;;10280347;28;20954;-70
2023/01/28 14:10:59;;;;;;;11.40;9.37;;;6.00;43.00;;;;;;10284441;28;20241;-74
2023/01/28 14:16:19;;;;;;;11.83;9.77;;;6.00;42.90;;;;;;10269874;28;20223;-69
2023/01/28 14:21:28;;;;;;;12.60;10.40;;;6.00;43.00;;;;;;10271621;28;20905;-68
2023/01/28 14:26:51;;;;;;;13.20;10.13;;;6.00;43.00;;;;;;10278331;28;20759;-69
2023/01/28 14:31:55;;;;;;;10.23;9.07;;;6.00;43.00;;;;;;10269871;28;20262;-69
2023/01/28 14:37:04;;;;;;;11.60;9.47;;;6.00;43.00;;;;;;10270265;28;20239;-69
2023/01/28 14:42:16;;;;;;;11.70;10.47;;;6.00;42.90;;;;;;10268087;28;20243;-69
2023/01/28 14:47:39;;;;;;;10.77;9.63;;;6.00;43.00;;;;;;10271344;28;20227;-68
2023/01/28 14:53:10;;;;;;;12.63;10.40;;;5.90;42.90;;;;;;10280653;28;20246;-68
2023/01/28 14:58:17;;;;;;;14.03;9.80;;;5.90;43.00;;;;;;10274011;28;20418;-68
2023/01/28 15:03:21;;;;;;;11.77;10.30;;;6.00;43.20;;;;;;10281238;28;20224;-68
2023/01/28 15:08:31;;;;;;;11.33;10.03;;;6.00;43.30;;;;;;10280620;28;20227;-73
2023/01/28 15:13:40;;;;;;;11.03;9.83;;;6.00;43.10;;;;;;10274014;28;20227;-69
2023/01/28 15:18:44;;;;;;;11.20;10.00;;;6.00;43.00;;;;;;10265213;28;20242;-67
2023/01/28 15:23:52;;;;;;;12.23;10.07;;;6.00;43.00;;;;;;10274158;28;20239;-67
2023/01/28 15:28:56;;;;;;;10.33;9.33;;;6.00;43.00;;;;;;10267375;28;20355;-67
2023/01/28 15:34:01;;;;;;;9.60;8.60;;;6.00;43.20;;;;;;10273662;28;20231;-73
2023/01/28 15:39:13;;;;;;;10.23;8.57;;;6.00;43.20;;;;;;10271898;28;20227;-73
2023/01/28 15:44:18;;;;;;;9.77;8.50;;;6.00;43.10;;;;;;10275565;28;20603;-73
2023/01/28 15:49:26;;;;;;;9.70;8.70;;;6.00;43.10;;;;;;10277856;28;20673;-73
2023/01/28 15:54:31;;;;;;;9.27;8.27;;;6.00;43.20;;;;;;10276834;28;20227;-67
2023/01/28 15:59:34;;;;;;;9.17;8.27;;;5.90;43.10;;;;;;10293115;28;20289;-67
2023/01/28 16:04:37;;;;;;;9.63;8.60;;;5.90;43.10;;;;;;10289472;28;20228;-69
2023/01/28 16:09:42;;;;;;;8.33;7.53;;;5.90;43.10;;;;;;10286909;28;20235;-69
2023/01/28 16:14:49;;;;;;;9.23;8.23;;;5.90;43.20;;;;;;10284209;28;20243;-69
2023/01/28 16:19:58;;;;;;;9.57;7.57;;;5.80;43.40;;;;;;10276313;28;20702;-68
2023/01/28 16:25:03;;;;;;;8.47;7.50;;;5.80;43.40;;;;;;10307265;28;20238;-68
2023/01/28 16:30:07;;;;;;;9.57;8.30;;;5.90;43.50;;;;;;10299737;28;20605;-73
2023/01/28 16:35:13;;;;;;;10.43;9.37;;;5.80;43.40;;;;;;10305728;28;20264;-73
2023/01/28 16:40:21;;;;;;;10.93;9.83;;;5.80;43.40;;;;;;10299964;28;20340;-68
2023/01/28 16:45:25;;;;;;;9.97;8.97;;;5.80;43.40;;;;;;10300910;28;20230;-68
2023/01/28 16:50:28;;;;;;;11.23;9.27;;;5.80;43.40;;;;;;10303980;28;20231;-68
2023/01/28 16:55:33;;;;;;;10.20;8.77;;;5.80;43.40;;;;;;10297447;28;20254;-67
2023/01/28 17:00:36;;;;;;;10.50;9.40;;;5.70;43.30;;;;;;10302645;28;20227;-69
2023/01/28 17:05:39;;;;;;;9.30;8.40;;;5.70;43.30;;;;;;10298786;28;20238;-68
2023/01/28 17:10:44;;;;;;;8.70;7.80;;;5.70;43.30;;;;;;10301888;28;20227;-69
2023/01/28 17:15:47;;;;;;;8.53;7.30;;;5.60;43.20;;;;;;10301572;28;20234;-67
2023/01/28 17:20:50;;;;;;;7.33;6.63;;;5.50;43.10;;;;;;10302726;28;20903;-68
2023/01/28 17:25:55;;;;;;;8.33;6.93;;;5.50;43.20;;;;;;10297624;28;20239;-68
2023/01/28 17:30:58;;;;;;;8.53;6.83;;;5.50;43.60;;;;;;10298790;28;20227;-70
2023/01/28 17:36:01;;;;;;;7.43;6.73;;;5.40;43.40;;;;;;10296214;28;20873;-70
2023/01/28 17:41:08;;;;;;;6.90;6.30;;;5.40;43.60;;;;;;10299758;28;20230;-70
2023/01/28 17:46:12;;;;;;;7.10;6.40;;;5.40;43.80;;;;;;10296202;28;20234;-74
2023/01/28 17:51:17;;;;;;;6.40;5.80;;;5.40;43.70;;;;;;10297989;28;20262;-69
2023/01/28 17:56:24;;;;;;;6.70;6.10;;;5.40;43.80;;;;;;10295295;28;20259;-69
2023/01/28 18:01:27;;;;;;;7.00;6.30;;;5.30;43.80;;;;;;10302326;28;20246;-69
2023/01/28 18:06:31;;;;;;;6.90;6.20;;;5.30;43.60;;;;;;10299168;28;20223;-69
2023/01/28 18:11:36;;;;;;;6.60;5.90;;;5.30;43.80;;;;;;10295276;28;20238;-75
2023/01/28 18:16:39;;;;;;;6.53;5.87;;;5.30;43.90;;;;;;10297080;28;20246;-75
2023/01/28 18:21:42;;;;;;;6.60;5.93;;;5.40;44.00;;;;;;10300077;28;20238;-76
2023/01/28 18:26:58;;;;;;;7.27;6.57;;;5.40;44.10;;;;;;10305441;28;20228;-75
2023/01/28 18:32:02;;;;;;;7.40;6.60;;;5.40;44.30;;;;;;10304615;28;20314;-73
2023/01/28 18:37:07;;;;;;;6.83;6.23;;;5.50;44.20;;;;;;10299806;28;20330;-75
2023/01/28 18:42:12;;;;;;;6.80;6.20;;;5.50;44.20;;;;;;10301931;28;20732;-75
2023/01/28 18:47:16;;;;;;;5.73;5.23;;;5.60;44.30;;;;;;10296422;28;20227;-76
2023/01/28 18:52:19;;;;;;;7.30;6.60;;;5.60;44.20;;;;;;10297359;28;20223;-75
2023/01/28 18:57:24;;;;;;;7.17;6.47;;;5.70;44.30;;;;;;10298221;28;20232;-75
2023/01/28 19:02:27;;;;;;;8.23;7.47;;;5.70;44.30;;;;;;10293410;28;20234;-75
2023/01/28 19:07:30;;;;;;;7.80;7.10;;;5.80;44.30;;;;;;10290864;28;20239;-76
2023/01/28 19:12:35;;;;;;;9.00;8.17;;;5.80;44.30;;;;;;10295393;28;20231;-70
2023/01/28 19:17:38;;;;;;;9.27;8.37;;;5.80;44.10;;;;;;10292943;28;20231;-70
2023/01/28 19:22:41;;;;;;;9.50;8.60;;;5.80;44.00;;;;;;10294832;28;20581;-71
2023/01/28 19:27:46;;;;;;;11.50;10.40;;;5.80;43.90;;;;;;10295193;28;20242;-70
2023/01/28 19:32:49;;;;;;;9.83;8.93;;;5.80;43.80;;;;;;10297001;28;20235;-71
2023/01/28 19:37:52;;;;;;;11.63;10.63;;;5.80;43.90;;;;;;10305036;28;20768;-71
2023/01/28 19:42:57;;;;;;;10.33;9.33;;;5.70;43.80;;;;;;10301277;28;20242;-71
2023/01/28 19:48:00;;;;;;;9.67;8.80;;;5.80;44.00;;;;;;10295564;28;20230;-76
2023/01/28 19:53:03;;;;;;;9.43;7.73;;;5.70;44.00;;;;;;10300237;28;20738;-75
2023/01/28 19:58:08;;;;;;;8.30;7.50;;;5.70;44.10;;;;;;10295187;28;20242;-75
2023/01/28 20:03:11;;;;;;;9.17;8.37;;;5.80;44.30;;;;;;10298000;28;20228;-75
2023/01/28 20:08:14;;;;;;;8.37;7.57;;;5.80;44.30;;;;;;10303834;28;20325;-71
2023/01/28 20:13:19;;;;;;;7.87;7.17;;;5.80;44.20;;;;;;10301991;28;20589;-75
2023/01/28 20:18:22;;;;;;;8.17;7.20;;;5.80;44.10;;;;;;10303656;28;20243;-74
2023/01/28 20:23:36;;;;;;;6.77;6.17;;;5.80;43.90;;;;;;10298886;28;20305;-76
2023/01/28 20:28:40;;;;;;;7.00;6.40;;;5.80;44.40;;;;;;10301074;28;20235;-70
2023/01/28 20:33:44;;;;;;;7.37;6.70;;;5.80;44.40;;;;;;10301079;28;20231;-71
2023/01/28 20:38:48;;;;;;;7.90;7.07;;;5.80;44.10;;;;;;10300049;28;20609;-71
2023/01/28 20:43:54;;;;;;;7.97;7.17;;;5.80;44.20;;;;;;10299488;28;20226;-72
2023/01/28 20:48:58;;;;;;;8.00;7.23;;;5.80;44.30;;;;;;10303610;28;20602;-71
2023/01/28 20:54:02;;;;;;;9.77;8.83;;;5.80;45.00;;;;;;10309033;28;20232;-73
2023/01/28 20:59:07;;;;;;;8.10;7.40;;;5.90;44.20;;;;;;10306744;28;20241;-74
2023/01/28 21:04:10;;;;;;;8.60;7.77;;;5.90;44.40;;;;;;10299971;28;20219;-69
2023/01/28 21:09:14;;;;;;;10.47;7.90;;;5.90;44.30;;;;;;10295088;28;20636;-72
2023/01/28 21:14:18;;;;;;;9.23;8.43;;;5.90;44.20;;;;;;10301276;28;20234;-74
2023/01/28 21:19:21;;;;;;;9.73;8.83;;;6.00;44.40;;;;;;10302475;28;23634;-72
2023/01/28 21:24:25;;;;;;;10.40;9.40;;;6.00;44.20;;;;;;10296933;28;20681;-71
2023/01/28 21:29:29;;;;;;;10.60;9.60;;;6.00;44.10;;;;;;10297402;28;20231;-74
2023/01/28 21:34:32;;;;;;;10.73;9.73;;;6.00;44.00;;;;;;10306363;28;20234;-71
2023/01/28 21:39:35;;;;;;;10.27;9.30;;;6.00;44.10;;;;;;10303662;28;20231;-75
2023/01/28 21:44:40;;;;;;;9.30;8.37;;;6.10;44.10;;;;;;10299766;28;20238;-71
2023/01/28 21:49:43;;;;;;;8.83;7.93;;;6.10;43.60;;;;;;10299470;28;20223;-75
2023/01/28 21:54:46;;;;;;;8.20;7.50;;;6.10;43.60;;;;;;10304566;28;20243;-72
2023/01/28 21:59:51;;;;;;;8.00;7.03;;;6.10;43.60;;;;;;10302728;28;20258;-72
2023/01/28 22:04:54;;;;;;;8.00;7.30;;;6.00;43.50;;;;;;10306338;28;20239;-75
2023/01/28 22:09:57;;;;;;;7.10;6.40;;;6.00;43.60;;;;;;10310253;28;20216;-75
2023/01/28 22:15:02;;;;;;;7.10;6.50;;;6.00;43.50;;;;;;10310026;28;20708;-75
2023/01/28 22:20:07;;;;;;;6.03;5.53;;;5.90;43.10;;;;;;10296702;28;20226;-74
2023/01/28 22:25:10;;;;;;;6.33;5.73;;;5.90;43.10;;;;;;10305023;28;20234;-72
2023/01/28 22:30:15;;;;;;;5.70;5.20;;;5.80;43.10;;;;;;10299283;28;20238;-72
2023/01/28 22:35:18;;;;;;;4.93;4.53;;;5.80;43.20;;;;;;10303020;28;20231;-72
2023/01/28 22:40:22;;;;;;;4.80;4.43;;;5.80;43.40;;;;;;10298487;28;20242;-72
2023/01/28 22:45:26;;;;;;;5.47;5.00;;;5.80;43.40;;;;;;10295776;28;20796;-72
2023/01/28 22:50:29;;;;;;;6.00;5.27;;;5.80;43.40;;;;;;10303508;28;20766;-72
2023/01/28 22:55:33;;;;;;;5.53;5.00;;;5.80;43.40;;;;;;10300872;28;21072;-71
2023/01/28 23:00:37;;;;;;;4.73;4.33;;;5.80;43.40;;;;;;10300557;28;20241;-71
2023/01/28 23:05:40;;;;;;;5.20;4.70;;;5.80;43.30;;;;;;10304495;28;20231;-74
2023/01/28 23:10:48;;;;;;;5.00;4.50;;;5.80;43.40;;;;;;10306875;28;20227;-71
2023/01/28 23:26:38;;;;;;;5.40;4.90;;;5.80;43.10;;;;;;10310586;28;20314;-71
2023/01/28 23:31:45;;;;;;;5.43;4.93;;;5.80;43.10;;;;;;10304883;28;20726;-71
2023/01/28 23:36:49;;;;;;;5.13;4.73;;;5.80;42.90;;;;;;10302978;28;20326;-71
2023/01/28 23:41:52;;;;;;;5.63;5.10;;;5.70;42.90;;;;;;10306676;28;20230;-71
2023/01/28 23:46:57;;;;;;;5.23;4.60;;;5.70;42.60;;;;;;10308021;28;20308;-74
2023/01/28 23:52:00;;;;;;;5.50;5.00;;;5.60;42.60;;;;;;10308763;28;20697;-74
2023/01/28 23:57:04;;;;;;;4.70;4.30;;;5.50;42.70;;;;;;10312616;28;20223;-71
